Time;durP1;ratioP1;P1;durP2;ratioP2;P2;SDS_P1;SDS_P2;PMS_P1;PMS_P2;Temp;Humidity;BMP_temperature;BMP_pressure;BME280_temperature;BME280_humidity;BME280_pressure;Samples;Min_cycle;Max_cycle;Signal;HPM_P1;HPM_P2
2022/08/11 00:01:00;;;;;;;;;;;;;;;;;;5039906;28;19987;-23
2022/08/11 00:03:27;;;;;;;;;;;;;;;;;;5040316;28;19919;-23
2022/08/11 00:05:54;;;;;;;;;;;;;;;;;;5040298;28;20255;-24
2022/08/11 00:08:21;;;;;;;;;;;;;;;;;;5039917;28;19909;-24
2022/08/11 00:10:48;;;;;;;;;;;;;;;;;;5040143;28;19917;-23
2022/08/11 00:13:15;;;;;;;;;;;;;;;;;;5021901;28;20358;-27
2022/08/11 00:15:42;;;;;;;;;;;;;;;;;;5039949;28;19913;-30
2022/08/11 00:18:08;;;;;;;;;;;;;;;;;;5039951;28;19921;-25
2022/08/11 00:20:35;;;;;;;;;;;;;;;;;;5022685;28;19909;-26
2022/08/11 00:23:03;;;;;;;;;;;;;;;;;;5039917;28;20236;-26
2022/08/11 00:25:30;;;;;;;;;;;;;;;;;;5022020;28;19913;-28
2022/08/11 00:27:57;;;;;;;;;;;;;;;;;;5039680;28;19986;-26
2022/08/11 00:30:23;;;;;;;;;;;;;;;;;;5039624;28;19917;-30
2022/08/11 00:32:50;;;;;;;;;;;;;;;;;;5021511;28;20263;-23
2022/08/11 00:35:18;;;;;;;;;;;;;;;;;;5038356;28;19917;-27
2022/08/11 00:37:45;;;;;;;;;;;;;;;;;;5039315;28;19913;-24
2022/08/11 00:40:12;;;;;;;;;;;;;;;;;;5021548;28;19909;-28
2022/08/11 00:42:39;;;;;;;;;;;;;;;;;;5021817;28;19913;-24
2022/08/11 00:45:07;;;;;;;;;;;;;;;;;;5021706;28;19921;-27
2022/08/11 00:47:33;;;;;;;;;;;;;;;;;;5039117;28;19982;-28
2022/08/11 00:50:00;;;;;;;;;;;;;;;;;;5039208;28;19909;-27
2022/08/11 00:52:27;;;;;;;;;;;;;;;;;;5021583;28;20229;-25
2022/08/11 00:54:54;;;;;;;;;;;;;;;;;;5021620;28;20338;-24
2022/08/11 00:57:21;;;;;;;;;;;;;;;;;;5039140;28;19913;-25
2022/08/11 00:59:48;;;;;;;;;;;;;;;;;;5039099;28;19913;-26
2022/08/11 01:02:15;;;;;;;;;;;;;;;;;;5039228;28;19936;-29
2022/08/11 01:04:42;;;;;;;;;;;;;;;;;;5021253;28;19913;-26
2022/08/11 01:07:09;;;;;;;;;;;;;;;;;;5038938;28;19913;-24
2022/08/11 01:09:36;;;;;;;;;;;;;;;;;;5022032;28;19970;-23
2022/08/11 01:12:04;;;;;;;;;;;;;;;;;;5039516;28;19920;-25
2022/08/11 01:14:31;;;;;;;;;;;;;;;;;;5038462;28;20347;-25
2022/08/11 01:16:58;;;;;;;;;;;;;;;;;;5039393;28;19924;-27
2022/08/11 01:19:26;;;;;;;;;;;;;;;;;;5035431;28;19928;-24
2022/08/11 01:21:53;;;;;;;;;;;;;;;;;;5038731;28;19991;-26
2022/08/11 01:24:19;;;;;;;;;;;;;;;;;;5038520;28;19924;-25
2022/08/11 01:26:46;;;;;;;;;;;;;;;;;;5038205;28;20256;-27
2022/08/11 01:29:13;;;;;;;;;;;;;;;;;;5038157;28;19913;-29
2022/08/11 01:31:40;;;;;;;;;;;;;;;;;;5038262;28;19909;-25
2022/08/11 01:34:06;;;;;;;;;;;;;;;;;;5020717;28;20342;-29
2022/08/11 01:36:34;;;;;;;;;;;;;;;;;;5020801;28;20355;-31
2022/08/11 01:39:01;;;;;;;;;;;;;;;;;;5037983;28;19970;-30
2022/08/11 01:44:36;;;;;;;;;;;;;;;;;;5038671;28;20246;-33
2022/08/11 01:46:59;;;;;;;;;;;;;;;;;;5038068;28;19932;-28
2022/08/11 01:49:26;;;;;;;;;;;;;;;;;;5038251;28;19913;-24
2022/08/11 01:51:54;;;;;;;;;;;;;;;;;;5038539;28;20319;-24
2022/08/11 01:54:21;;;;;;;;;;;;;;;;;;5037431;28;20244;-27
2022/08/11 01:56:47;;;;;;;;;;;;;;;;;;5038218;28;19952;-26
2022/08/11 01:59:14;;;;;;;;;;;;;;;;;;5038573;28;19920;-31
2022/08/11 02:01:43;;;;;;;;;;;;;;;;;;5038482;28;20352;-25
2022/08/11 02:04:16;;;;;;;;;;;;;;;;;;5037567;28;20367;-23
2022/08/11 02:06:55;;;;;;;;;;;;;;;;;;5020598;28;19909;-32
2022/08/11 02:09:22;;;;;;;;;;;;;;;;;;5020678;28;19967;-24
2022/08/11 02:11:49;;;;;;;;;;;;;;;;;;5037662;28;20008;-25
2022/08/11 02:14:26;;;;;;;;;;;;;;;;;;5038178;28;19913;-25
2022/08/11 02:16:53;;;;;;;;;;;;;;;;;;5038573;28;19936;-31
2022/08/11 02:24:49;;;;;;;;;;;;;;;;;;5038117;28;20255;-28
2022/08/11 02:27:15;;;;;;;;;;;;;;;;;;5038035;28;20003;-27
2022/08/11 02:29:42;;;;;;;;;;;;;;;;;;5037868;28;19924;-26
2022/08/11 02:34:55;;;;;;;;;;;;;;;;;;5038147;28;19924;-24
2022/08/11 02:37:23;;;;;;;;;;;;;;;;;;5036978;28;19913;-32
2022/08/11 02:39:50;;;;;;;;;;;;;;;;;;5020203;28;19909;-30
2022/08/11 02:42:23;;;;;;;;;;;;;;;;;;5036739;28;19920;-24
2022/08/11 02:44:56;;;;;;;;;;;;;;;;;;5037576;28;20283;-28
2022/08/11 02:47:22;;;;;;;;;;;;;;;;;;5037074;28;19944;-25
2022/08/11 02:49:56;;;;;;;;;;;;;;;;;;5037663;28;19919;-28
2022/08/11 02:52:31;;;;;;;;;;;;;;;;;;5019346;28;19913;-27
2022/08/11 02:54:57;;;;;;;;;;;;;;;;;;5019505;28;19913;-28
2022/08/11 02:57:24;;;;;;;;;;;;;;;;;;5036665;28;20369;-24
2022/08/11 02:59:51;;;;;;;;;;;;;;;;;;5037092;28;20324;-30
2022/08/11 03:02:17;;;;;;;;;;;;;;;;;;5036968;28;19936;-28
2022/08/11 03:04:48;;;;;;;;;;;;;;;;;;5019537;28;19913;-24
2022/08/11 03:07:16;;;;;;;;;;;;;;;;;;5037423;28;19921;-29
2022/08/11 03:09:43;;;;;;;;;;;;;;;;;;5036694;28;19909;-32
2022/08/11 03:17:40;;;;;;;;;;;;;;;;;;5037684;28;19924;-27
2022/08/11 03:20:07;;;;;;;;;;;;;;;;;;5038207;28;19917;-26
2022/08/11 03:22:33;;;;;;;;;;;;;;;;;;5019614;28;19913;-27
2022/08/11 03:25:03;;;;;;;;;;;;;;;;;;5020113;28;19988;-31
2022/08/11 03:27:31;;;;;;;;;;;;;;;;;;5036841;28;19979;-23
2022/08/11 03:29:59;;;;;;;;;;;;;;;;;;5019061;28;19924;-27
2022/08/11 03:32:27;;;;;;;;;;;;;;;;;;5036557;28;20255;-24
2022/08/11 03:34:54;;;;;;;;;;;;;;;;;;5019481;28;19924;-24
2022/08/11 03:40:06;;;;;;;;;;;;;;;;;;5036715;28;20335;-29
2022/08/11 03:42:33;;;;;;;;;;;;;;;;;;5019230;28;19980;-29
2022/08/11 03:45:01;;;;;;;;;;;;;;;;;;5036659;28;19913;-31
2022/08/11 03:47:30;;;;;;;;;;;;;;;;;;5036016;28;20240;-25
2022/08/11 03:49:58;;;;;;;;;;;;;;;;;;5018540;28;20424;-31
2022/08/11 03:52:26;;;;;;;;;;;;;;;;;;5018879;28;19913;-29
2022/08/11 03:54:53;;;;;;;;;;;;;;;;;;5037139;28;20328;-26
2022/08/11 03:57:20;;;;;;;;;;;;;;;;;;5036496;28;19913;-27
2022/08/11 03:59:48;;;;;;;;;;;;;;;;;;5036190;28;20248;-28
2022/08/11 04:05:00;;;;;;;;;;;;;;;;;;5035486;28;20044;-23
2022/08/11 04:07:28;;;;;;;;;;;;;;;;;;5019737;28;20027;-24
2022/08/11 04:09:57;;;;;;;;;;;;;;;;;;5036947;28;19914;-24
2022/08/11 04:12:26;;;;;;;;;;;;;;;;;;5040223;28;20238;-24
2022/08/11 04:29:02;;;;;;;;;;;;;;;;;;5156321;22;19957;-24
2022/08/11 04:31:29;;;;;;;;;;;;;;;;;;5022589;28;19913;-24
2022/08/11 04:33:58;;;;;;;;;;;;;;;;;;5039429;28;19948;-24
2022/08/11 04:37:31;;;;;;;;;;;;;;;;;;5039294;28;19913;-24
2022/08/11 04:39:11;;;;;;;;;;;;;;;;;;5019191;28;19909;-24
2022/08/11 04:43:19;;;;;;;;;;;;;;;;;;5002159;28;20268;-24
2022/08/11 04:44:25;;;;;;;;;;;;;;;;;;5019640;28;19913;-24
2022/08/11 04:46:54;;;;;;;;;;;;;;;;;;5001907;28;19913;-24
2022/08/11 05:03:11;;;;;;;;;;;;;;;;;;5019871;28;19925;-24
2022/08/11 05:05:38;;;;;;;;;;;;;;;;;;5001553;28;19924;-24
2022/08/11 05:08:06;;;;;;;;;;;;;;;;;;5018487;28;19929;-24
2022/08/11 05:10:34;;;;;;;;;;;;;;;;;;5019307;28;19909;-24
2022/08/11 05:27:09;;;;;;;;;;;;;;;;;;5019487;28;19917;-24
2022/08/11 05:57:34;;;;;;;;;;;;;;;;;;5018497;28;19920;-24
2022/08/11 06:00:02;;;;;;;;;;;;;;;;;;5018311;28;19944;-24
2022/08/11 06:02:32;;;;;;;;;;;;;;;;;;5000952;28;19913;-24
2022/08/11 06:19:02;;;;;;;;;;;;;;;;;;5093472;22;19931;-23
2022/08/11 06:21:36;;;;;;;;;;;;;;;;;;5038005;28;19913;-24
2022/08/11 06:24:04;;;;;;;;;;;;;;;;;;5038719;28;19941;-24
2022/08/11 06:29:25;;;;;;;;;;;;;;;;;;5017789;28;20012;-24
2022/08/11 06:43:04;;;;;;;;;;;;;;;;;;5470639;22;19975;-24
2022/08/11 06:45:32;;;;;;;;;;;;;;;;;;5020993;28;20004;-24
2022/08/11 06:48:01;;;;;;;;;;;;;;;;;;5039903;28;19913;-24
2022/08/11 06:53:20;;;;;;;;;;;;;;;;;;5037139;28;20401;-24
2022/08/11 07:01:17;;;;;;;;;;;;;;;;;;5037830;28;20019;-23
2022/08/11 07:03:47;;;;;;;;;;;;;;;;;;5036660;28;19952;-23
2022/08/11 07:06:15;;;;;;;;;;;;;;;;;;5019276;28;20216;-23
2022/08/11 07:16:59;;;;;;;;;;;;;;;;;;5036825;28;19975;-23
2022/08/11 07:30:27;;;;;;;;;;;;;;;;;;5036449;28;19924;-23
2022/08/11 07:32:56;;;;;;;;;;;;;;;;;;5036524;28;19913;-23
2022/08/11 07:35:24;;;;;;;;;;;;;;;;;;5036118;28;19924;-23
2022/08/11 07:37:53;;;;;;;;;;;;;;;;;;5036428;28;20010;-23
2022/08/11 07:40:24;;;;;;;;;;;;;;;;;;5020113;28;19920;-23
2022/08/11 07:42:52;;;;;;;;;;;;;;;;;;5036757;28;19944;-23
2022/08/11 07:53:42;;;;;;;;;;;;;;;;;;5040878;28;19928;-23
2022/08/11 07:56:15;;;;;;;;;;;;;;;;;;5040776;28;19917;-24
2022/08/11 08:18:15;;;;;;;;;;;;;;;;;;5040803;28;19963;-23
2022/08/11 08:20:44;;;;;;;;;;;;;;;;;;5039722;28;19913;-22
2022/08/11 08:23:14;;;;;;;;;;;;;;;;;;5039733;28;20207;-23
2022/08/11 08:25:41;;;;;;;;;;;;;;;;;;5040162;28;19975;-24
2022/08/11 08:28:14;;;;;;;;;;;;;;;;;;5039670;28;19913;-25
2022/08/11 08:30:51;;;;;;;;;;;;;;;;;;5040314;28;19912;-25
2022/08/11 08:33:18;;;;;;;;;;;;;;;;;;5039625;28;19979;-25
2022/08/11 08:35:48;;;;;;;;;;;;;;;;;;5022022;28;19909;-24
2022/08/11 08:38:15;;;;;;;;;;;;;;;;;;5022153;28;19913;-24
2022/08/11 08:40:47;;;;;;;;;;;;;;;;;;5039913;28;19959;-25
2022/08/11 08:43:24;;;;;;;;;;;;;;;;;;5039041;28;19921;-23
2022/08/11 08:45:52;;;;;;;;;;;;;;;;;;5021941;28;19924;-23
2022/08/11 08:48:19;;;;;;;;;;;;;;;;;;5021450;28;20220;-24
2022/08/11 08:53:32;;;;;;;;;;;;;;;;;;5039283;28;19924;-24
2022/08/11 08:56:00;;;;;;;;;;;;;;;;;;5038353;28;20051;-24
2022/08/11 08:58:32;;;;;;;;;;;;;;;;;;5022900;28;19939;-24
2022/08/11 09:01:02;;;;;;;;;;;;;;;;;;5039466;28;19909;-24
2022/08/11 09:03:31;;;;;;;;;;;;;;;;;;5039187;28;19913;-23
2022/08/11 09:06:05;;;;;;;;;;;;;;;;;;5022190;28;20004;-24
2022/08/11 09:08:37;;;;;;;;;;;;;;;;;;5022600;28;19913;-24
2022/08/11 09:14:20;;;;;;;;;;;;;;;;;;5039534;28;19921;-24
2022/08/11 09:28:04;;;;;;;;;;;;;;;;;;5039979;28;19924;-23
2022/08/11 09:30:37;;;;;;;;;;;;;;;;;;5039764;28;19932;-23
2022/08/11 09:33:06;;;;;;;;;;;;;;;;;;5038419;28;19913;-23
2022/08/11 09:35:33;;;;;;;;;;;;;;;;;;5038670;28;19919;-23
2022/08/11 09:40:50;;;;;;;;;;;;;;;;;;5039686;28;19916;-23
2022/08/11 09:46:06;;;;;;;;;;;;;;;;;;5039104;28;19967;-23
2022/08/11 09:48:34;;;;;;;;;;;;;;;;;;5038501;28;19913;-23
2022/08/11 09:51:11;;;;;;;;;;;;;;;;;;5021263;28;19909;-23
2022/08/11 09:53:39;;;;;;;;;;;;;;;;;;5037884;28;19914;-26
2022/08/11 09:58:53;;;;;;;;;;;;;;;;;;5038652;28;19924;-23
2022/08/11 10:01:26;;;;;;;;;;;;;;;;;;5020652;28;19916;-24
2022/08/11 10:03:57;;;;;;;;;;;;;;;;;;5039540;28;19971;-24
2022/08/11 10:09:21;;;;;;;;;;;;;;;;;;5037521;28;19924;-24
2022/08/11 10:11:59;;;;;;;;;;;;;;;;;;5039012;28;20271;-23
2022/08/11 10:17:13;;;;;;;;;;;;;;;;;;5038212;28;20362;-23
2022/08/11 10:19:40;;;;;;;;;;;;;;;;;;5037802;28;20307;-23
2022/08/11 10:27:42;;;;;;;;;;;;;;;;;;5037123;28;19963;-23
2022/08/11 10:35:41;;;;;;;;;;;;;;;;;;5037981;28;20051;-24
2022/08/11 10:38:10;;;;;;;;;;;;;;;;;;5037683;28;20043;-23
2022/08/11 10:40:39;;;;;;;;;;;;;;;;;;5037459;28;19952;-24
2022/08/11 10:43:13;;;;;;;;;;;;;;;;;;5037092;28;20347;-24
2022/08/11 10:59:42;;;;;;;;;;;;;;;;;;4959083;29;19925;-23
2022/08/11 11:02:20;;;;;;;;;;;;;;;;;;4957057;28;19983;-24
2022/08/11 11:04:53;;;;;;;;;;;;;;;;;;4960379;28;20328;-23
2022/08/11 11:07:23;;;;;;;;;;;;;;;;;;5018690;28;19973;-24
2022/08/11 11:09:52;;;;;;;;;;;;;;;;;;5038490;28;19921;-24
2022/08/11 11:18:03;;;;;;;;;;;;;;;;;;5469707;22;20275;-22
2022/08/11 11:20:33;;;;;;;;;;;;;;;;;;5040647;28;19917;-22
2022/08/11 11:23:00;;;;;;;;;;;;;;;;;;5041571;28;19913;-23
2022/08/11 11:25:28;;;;;;;;;;;;;;;;;;5041229;28;19920;-23
2022/08/11 11:27:59;;;;;;;;;;;;;;;;;;5040981;28;20016;-22
2022/08/11 11:30:33;;;;;;;;;;;;;;;;;;5023196;28;19947;-22
2022/08/11 11:33:00;;;;;;;;;;;;;;;;;;5041739;28;19917;-22
2022/08/11 11:35:28;;;;;;;;;;;;;;;;;;5023260;28;20271;-22
2022/08/11 11:37:58;;;;;;;;;;;;;;;;;;5041417;28;19921;-22
2022/08/11 11:40:41;;;;;;;;;;;;;;;;;;5022943;28;19913;-22
2022/08/11 11:43:14;;;;;;;;;;;;;;;;;;5023498;28;19979;-22
2022/08/11 11:45:48;;;;;;;;;;;;;;;;;;5023271;28;20267;-22
2022/08/11 11:48:18;;;;;;;;;;;;;;;;;;5040736;28;19948;-22
2022/08/11 11:53:38;;;;;;;;;;;;;;;;;;5040666;28;20345;-22
2022/08/11 11:56:07;;;;;;;;;;;;;;;;;;5023187;28;19913;-21
2022/08/11 12:04:22;;;;;;;;;;;;;;;;;;5041765;28;19986;-21
2022/08/11 12:08:08;;;;;;;;;;;;;;;;;;5040372;28;19913;-21
2022/08/11 12:09:40;;;;;;;;;;;;;;;;;;5038912;28;20020;-22
2022/08/11 12:18:06;;;;;;;;;;;;;;;;;;5040743;28;19920;-21
2022/08/11 12:20:34;;;;;;;;;;;;;;;;;;5001790;28;19921;-22
2022/08/11 12:28:31;;;;;;;;;;;;;;;;;;5020631;28;19960;-21
2022/08/11 12:33:55;;;;;;;;;;;;;;;;;;5020710;28;19924;-21
2022/08/11 12:36:24;;;;;;;;;;;;;;;;;;5021073;28;20332;-22
2022/08/11 12:38:55;;;;;;;;;;;;;;;;;;5020366;28;19987;-22
2022/08/11 12:46:55;;;;;;;;;;;;;;;;;;5020111;28;19924;-21
2022/08/11 12:52:11;;;;;;;;;;;;;;;;;;5020520;28;19975;-22
2022/08/11 12:54:40;;;;;;;;;;;;;;;;;;5019594;28;20363;-22
2022/08/11 13:05:23;;;;;;;;;;;;;;;;;;5021647;28;19949;-21
2022/08/11 13:07:51;;;;;;;;;;;;;;;;;;5025584;28;20352;-21
2022/08/11 13:15:51;;;;;;;;;;;;;;;;;;5019277;28;19984;-21
2022/08/11 13:18:37;;;;;;;;;;;;;;;;;;5020887;28;19913;-22
2022/08/11 13:21:09;;;;;;;;;;;;;;;;;;5040503;28;19928;-21
2022/08/11 13:23:48;;;;;;;;;;;;;;;;;;5041338;28;20369;-21
2022/08/11 13:26:18;;;;;;;;;;;;;;;;;;5036404;28;19916;-22
2022/08/11 13:28:45;;;;;;;;;;;;;;;;;;5021883;28;19943;-22
2022/08/11 13:31:19;;;;;;;;;;;;;;;;;;5021834;28;19909;-22
2022/08/11 13:33:48;;;;;;;;;;;;;;;;;;5022358;28;19956;-22
2022/08/11 13:36:17;;;;;;;;;;;;;;;;;;5039174;28;19964;-22
2022/08/11 13:38:46;;;;;;;;;;;;;;;;;;5022280;28;19913;-22
2022/08/11 13:43:58;;;;;;;;;;;;;;;;;;5038462;28;20390;-20
2022/08/11 13:46:26;;;;;;;;;;;;;;;;;;5038627;28;19924;-21
2022/08/11 13:49:00;;;;;;;;;;;;;;;;;;5034007;28;20526;-22
2022/08/11 13:51:33;;;;;;;;;;;;;;;;;;5038331;28;19968;-22
2022/08/11 13:54:01;;;;;;;;;;;;;;;;;;5038932;28;20267;-22
2022/08/11 13:56:28;;;;;;;;;;;;;;;;;;5039044;28;19996;-22
2022/08/11 13:58:57;;;;;;;;;;;;;;;;;;5038838;28;19995;-22
2022/08/11 14:01:29;;;;;;;;;;;;;;;;;;5038439;28;19936;-22
2022/08/11 14:03:59;;;;;;;;;;;;;;;;;;5038446;28;19909;-21
2022/08/11 14:06:27;;;;;;;;;;;;;;;;;;5020214;28;19959;-22
2022/08/11 14:09:02;;;;;;;;;;;;;;;;;;5038802;28;19913;-22
2022/08/11 14:14:16;;;;;;;;;;;;;;;;;;5037561;28;19947;-23
2022/08/11 14:16:44;;;;;;;;;;;;;;;;;;5037325;28;19920;-22
2022/08/11 14:19:12;;;;;;;;;;;;;;;;;;5037363;28;19932;-23
2022/08/11 14:24:26;;;;;;;;;;;;;;;;;;5037923;28;20343;-22
2022/08/11 14:27:07;;;;;;;;;;;;;;;;;;5038016;28;20284;-22
2022/08/11 14:29:37;;;;;;;;;;;;;;;;;;5019284;28;20294;-22
2022/08/11 14:32:05;;;;;;;;;;;;;;;;;;5037309;28;19913;-22
2022/08/11 14:34:33;;;;;;;;;;;;;;;;;;5036993;28;19913;-21
2022/08/11 14:37:02;;;;;;;;;;;;;;;;;;5037359;28;20023;-21
2022/08/11 14:39:29;;;;;;;;;;;;;;;;;;5036434;28;19935;-22
2022/08/11 14:47:28;;;;;;;;;;;;;;;;;;5037158;28;19923;-21
2022/08/11 14:49:55;;;;;;;;;;;;;;;;;;5036440;28;19932;-21
2022/08/11 14:52:23;;;;;;;;;;;;;;;;;;5036827;28;20336;-21
2022/08/11 14:57:36;;;;;;;;;;;;;;;;;;5036490;28;19982;-21
2022/08/11 15:00:05;;;;;;;;;;;;;;;;;;5019688;28;19909;-21
2022/08/11 15:05:17;;;;;;;;;;;;;;;;;;5036685;28;19985;-22
2022/08/11 15:07:45;;;;;;;;;;;;;;;;;;5018963;28;19924;-22
2022/08/11 15:10:13;;;;;;;;;;;;;;;;;;5036207;28;19984;-22
2022/08/11 15:12:41;;;;;;;;;;;;;;;;;;5037496;28;19913;-22
2022/08/11 15:17:55;;;;;;;;;;;;;;;;;;5035225;28;19928;-22
2022/08/11 15:25:52;;;;;;;;;;;;;;;;;;5035292;28;20038;-22
2022/08/11 15:39:21;;;;;;;;;;;;;;;;;;5035631;28;19931;-22
2022/08/11 15:47:25;;;;;;;;;;;;;;;;;;5035826;28;19920;-22
2022/08/11 15:49:53;;;;;;;;;;;;;;;;;;5036067;28;19913;-21
2022/08/11 15:52:20;;;;;;;;;;;;;;;;;;5018569;28;19913;-22
2022/08/11 15:54:47;;;;;;;;;;;;;;;;;;5018298;28;19955;-22
2022/08/11 16:04:10;;;;;;;;;;;;;;;;;;5018791;28;20319;-21
2022/08/11 16:05:16;;;;;;;;;;;;;;;;;;5036960;28;19964;-21
2022/08/11 16:07:47;;;;;;;;;;;;;;;;;;5039838;28;19913;-21
2022/08/11 16:10:20;;;;;;;;;;;;;;;;;;5040410;28;20240;-22
2022/08/11 16:18:21;;;;;;;;;;;;;;;;;;5040121;28;19967;-22
2022/08/11 16:20:50;;;;;;;;;;;;;;;;;;5025187;28;19979;-22
2022/08/11 16:23:18;;;;;;;;;;;;;;;;;;5024496;28;19913;-21
2022/08/11 16:25:45;;;;;;;;;;;;;;;;;;5041156;28;19948;-21
2022/08/11 16:28:12;;;;;;;;;;;;;;;;;;5039325;28;19943;-21
2022/08/11 16:30:39;;;;;;;;;;;;;;;;;;5039958;28;20024;-21
2022/08/11 16:33:06;;;;;;;;;;;;;;;;;;5038999;28;20216;-21
2022/08/11 16:38:34;;;;;;;;;;;;;;;;;;5039457;28;20009;-22
2022/08/11 16:41:01;;;;;;;;;;;;;;;;;;5021627;28;19921;-22
2022/08/11 16:48:58;;;;;;;;;;;;;;;;;;5039389;28;19920;-21
2022/08/11 16:51:25;;;;;;;;;;;;;;;;;;5039458;28;19917;-22
2022/08/11 16:53:53;;;;;;;;;;;;;;;;;;5021160;28;19909;-22
2022/08/11 16:56:21;;;;;;;;;;;;;;;;;;5039131;28;19913;-22
2022/08/11 17:01:32;;;;;;;;;;;;;;;;;;5038686;28;19920;-22
2022/08/11 17:14:59;;;;;;;;;;;;;;;;;;5038533;28;19920;-21
2022/08/11 17:17:26;;;;;;;;;;;;;;;;;;5020079;28;19913;-21
2022/08/11 17:19:53;;;;;;;;;;;;;;;;;;5020233;28;19925;-21
2022/08/11 17:25:15;;;;;;;;;;;;;;;;;;5038446;28;20020;-22
2022/08/11 17:27:43;;;;;;;;;;;;;;;;;;5039015;28;19913;-22
2022/08/11 17:30:10;;;;;;;;;;;;;;;;;;5038613;28;20011;-23
2022/08/11 17:35:31;;;;;;;;;;;;;;;;;;5038906;28;19920;-22
2022/08/11 17:37:59;;;;;;;;;;;;;;;;;;5020361;28;19970;-21
2022/08/11 17:40:26;;;;;;;;;;;;;;;;;;5020210;28;19914;-22
2022/08/11 17:48:26;;;;;;;;;;;;;;;;;;5037107;28;19935;-22
2022/08/11 17:50:55;;;;;;;;;;;;;;;;;;5022819;28;20296;-22
2022/08/11 18:01:37;;;;;;;;;;;;;;;;;;5042345;28;19942;-21
2022/08/11 18:04:05;;;;;;;;;;;;;;;;;;5041800;28;19924;-21
2022/08/11 18:06:32;;;;;;;;;;;;;;;;;;5024127;28;20349;-22
